Time;durP1;ratioP1;P1;durP2;ratioP2;P2;SDS_P1;SDS_P2;PMS_P1;PMS_P2;Temp;Humidity;BMP_temperature;BMP_pressure;BME280_temperature;BME280_humidity;BME280_pressure;Samples;Min_cycle;Max_cycle;Signal;HPM_P1;HPM_P2
2023/06/02 00:01:53;;;;;;;9.25;6.32;;;;;;;;;;4331332;32;315768;-80
2023/06/02 00:04:23;;;;;;;8.23;6.55;;;;;;;;;;4325577;32;316768;-83
2023/06/02 00:06:51;;;;;;;10.98;6.70;;;;;;;;;;4330947;32;316660;-80
2023/06/02 00:09:21;;;;;;;11.15;6.70;;;;;;;;;;4327811;32;318083;-80
2023/06/02 00:11:48;;;;;;;16.00;7.18;;;;;;;;;;4330198;32;317819;-81
2023/06/02 00:14:17;;;;;;;11.60;7.62;;;;;;;;;;4342362;32;317753;-80
2023/06/02 00:16:46;;;;;;;11.60;7.03;;;;;;;;;;4332325;32;318105;-82
2023/06/02 00:19:14;;;;;;;7.68;6.35;;;;;;;;;;4342849;32;317735;-82
2023/06/02 00:21:45;;;;;;;9.68;6.50;;;;;;;;;;4331599;32;316962;-82
2023/06/02 00:24:13;;;;;;;11.25;7.25;;;;;;;;;;4341172;32;316659;-79
2023/06/02 00:26:40;;;;;;;9.60;6.68;;;;;;;;;;4341606;32;317764;-79
2023/06/02 00:29:08;;;;;;;9.85;7.00;;;;;;;;;;4327787;32;416339;-83
2023/06/02 00:31:36;;;;;;;7.45;6.65;;;;;;;;;;4341870;32;316893;-78
2023/06/02 00:34:04;;;;;;;8.60;6.87;;;;;;;;;;4330459;32;316808;-78
2023/06/02 00:36:31;;;;;;;8.65;6.72;;;;;;;;;;4342846;32;316671;-82
2023/06/02 00:38:59;;;;;;;10.48;6.35;;;;;;;;;;4330605;32;316838;-78
2023/06/02 00:41:26;;;;;;;9.52;6.82;;;;;;;;;;4342459;32;317699;-80
2023/06/02 00:43:54;;;;;;;13.73;7.03;;;;;;;;;;4331362;32;347841;-79
2023/06/02 00:46:21;;;;;;;8.38;6.45;;;;;;;;;;4341787;32;318080;-81
2023/06/02 00:48:51;;;;;;;22.35;7.07;;;;;;;;;;4332596;32;316838;-79
2023/06/02 00:51:19;;;;;;;11.05;7.03;;;;;;;;;;4342571;32;317726;-80
2023/06/02 00:53:47;;;;;;;6.80;6.07;;;;;;;;;;4332048;32;317689;-79
2023/06/02 00:56:14;;;;;;;12.43;7.15;;;;;;;;;;4342303;32;317023;-79
2023/06/02 00:58:43;;;;;;;8.18;5.95;;;;;;;;;;4330079;32;377880;-79
2023/06/02 01:01:12;;;;;;;7.70;6.37;;;;;;;;;;4341454;32;316760;-79
2023/06/02 01:03:42;;;;;;;11.12;6.60;;;;;;;;;;4341915;32;316883;-82
2023/06/02 01:06:12;;;;;;;11.73;6.47;;;;;;;;;;4329645;32;417244;-79
2023/06/02 01:08:42;;;;;;;9.20;6.07;;;;;;;;;;4341720;32;318097;-79
2023/06/02 01:11:10;;;;;;;11.23;6.68;;;;;;;;;;4328028;32;416157;-79
2023/06/02 01:13:37;;;;;;;11.73;6.40;;;;;;;;;;4339849;32;317865;-79
2023/06/02 01:16:05;;;;;;;9.38;6.20;;;;;;;;;;4330619;32;355655;-84
2023/06/02 01:18:35;;;;;;;8.25;6.62;;;;;;;;;;4342597;32;316675;-78
2023/06/02 01:21:05;;;;;;;11.82;6.22;;;;;;;;;;4331235;32;317017;-80
2023/06/02 01:23:36;;;;;;;7.87;6.03;;;;;;;;;;4342510;32;318097;-79
2023/06/02 01:26:08;;;;;;;14.20;6.15;;;;;;;;;;4332369;32;316738;-79
2023/06/02 01:28:36;;;;;;;10.00;6.85;;;;;;;;;;4341671;32;347399;-79
2023/06/02 01:31:12;;;;;;;14.07;7.37;;;;;;;;;;4330673;32;318032;-79
2023/06/02 01:33:45;;;;;;;6.53;5.43;;;;;;;;;;4341070;32;316477;-79
2023/06/02 01:36:13;;;;;;;9.82;5.93;;;;;;;;;;4328850;32;416342;-79
2023/06/02 01:38:42;;;;;;;13.25;7.12;;;;;;;;;;4341286;32;317105;-80
2023/06/02 01:41:14;;;;;;;12.75;8.10;;;;;;;;;;4329105;32;417357;-79
2023/06/02 01:43:43;;;;;;;10.90;6.47;;;;;;;;;;4331943;32;317823;-81
2023/06/02 01:46:12;;;;;;;14.35;5.60;;;;;;;;;;4341843;32;317977;-79
2023/06/02 01:48:40;;;;;;;9.05;5.97;;;;;;;;;;4341863;32;317699;-79
2023/06/02 01:51:08;;;;;;;20.98;6.87;;;;;;;;;;4328956;32;416036;-80
2023/06/02 01:53:35;;;;;;;10.50;5.50;;;;;;;;;;4342115;32;317794;-79
2023/06/02 01:56:03;;;;;;;13.93;6.47;;;;;;;;;;4330555;32;317820;-79
2023/06/02 01:58:32;;;;;;;11.82;7.47;;;;;;;;;;4342047;32;317723;-78
2023/06/02 02:01:00;;;;;;;13.10;7.30;;;;;;;;;;4329832;32;317919;-79
2023/06/02 02:03:29;;;;;;;15.82;8.48;;;;;;;;;;4339928;32;318530;-79
2023/06/02 02:05:56;;;;;;;15.73;8.68;;;;;;;;;;4329826;32;317738;-79
2023/06/02 02:08:24;;;;;;;15.02;6.80;;;;;;;;;;4341550;32;317624;-78
2023/06/02 02:10:51;;;;;;;15.07;6.15;;;;;;;;;;4329904;32;318098;-79
2023/06/02 02:13:19;;;;;;;8.55;6.10;;;;;;;;;;4341611;32;317804;-80
2023/06/02 02:15:47;;;;;;;10.23;5.55;;;;;;;;;;4330211;32;316726;-79
2023/06/02 02:18:15;;;;;;;11.95;5.90;;;;;;;;;;4340936;32;317887;-78
2023/06/02 02:20:42;;;;;;;11.18;5.37;;;;;;;;;;4331055;32;317975;-78
2023/06/02 02:23:10;;;;;;;10.45;6.43;;;;;;;;;;4340880;32;317860;-78
2023/06/02 02:25:37;;;;;;;10.48;6.28;;;;;;;;;;4339679;32;317854;-78
2023/06/02 02:28:04;;;;;;;8.27;6.75;;;;;;;;;;4331348;32;317712;-78
2023/06/02 02:30:32;;;;;;;17.05;7.43;;;;;;;;;;4339822;32;355998;-78
2023/06/02 02:33:02;;;;;;;10.13;6.43;;;;;;;;;;4330606;32;317936;-78
2023/06/02 02:35:29;;;;;;;11.60;6.40;;;;;;;;;;4340869;32;317970;-78
2023/06/02 02:37:57;;;;;;;14.87;5.80;;;;;;;;;;4330183;32;317971;-78
2023/06/02 02:40:24;;;;;;;12.00;6.30;;;;;;;;;;4338996;32;317734;-78
2023/06/02 02:42:52;;;;;;;10.13;6.65;;;;;;;;;;4331407;32;317604;-77
2023/06/02 02:45:20;;;;;;;7.65;5.68;;;;;;;;;;4338444;32;318150;-80
2023/06/02 02:47:48;;;;;;;12.18;7.18;;;;;;;;;;4330434;33;317090;-80
2023/06/02 02:50:17;;;;;;;8.05;6.95;;;;;;;;;;4341261;33;317907;-78
2023/06/02 02:52:44;;;;;;;13.62;7.65;;;;;;;;;;4330101;33;316882;-79
2023/06/02 02:55:11;;;;;;;18.17;7.37;;;;;;;;;;4340805;33;317536;-79
2023/06/02 02:57:39;;;;;;;8.45;7.55;;;;;;;;;;4341435;33;317800;-79
2023/06/02 03:00:09;;;;;;;18.08;7.95;;;;;;;;;;4328220;32;416462;-79
2023/06/02 03:02:37;;;;;;;10.73;8.25;;;;;;;;;;4340424;33;317846;-79
2023/06/02 03:05:06;;;;;;;10.50;6.65;;;;;;;;;;4328810;33;328783;-79
2023/06/02 03:07:35;;;;;;;13.00;6.07;;;;;;;;;;4338853;33;317828;-79
2023/06/02 03:10:03;;;;;;;12.05;6.75;;;;;;;;;;4329966;32;318112;-79
2023/06/02 03:12:30;;;;;;;10.50;7.12;;;;;;;;;;4341277;33;318026;-79
2023/06/02 03:14:58;;;;;;;13.53;7.07;;;;;;;;;;4329824;32;318014;-80
2023/06/02 03:17:27;;;;;;;10.85;6.05;;;;;;;;;;4340741;33;317894;-82
2023/06/02 03:19:55;;;;;;;8.27;6.07;;;;;;;;;;4333380;32;326936;-80
2023/06/02 03:22:23;;;;;;;17.15;7.18;;;;;;;;;;4343566;32;316880;-79
2023/06/02 03:24:52;;;;;;;10.82;7.03;;;;;;;;;;4332004;32;317984;-85
2023/06/02 03:27:20;;;;;;;8.80;6.30;;;;;;;;;;4343106;32;317866;-79
2023/06/02 03:29:47;;;;;;;16.62;7.05;;;;;;;;;;4331205;32;316852;-79
2023/06/02 03:32:14;;;;;;;13.40;6.18;;;;;;;;;;4343849;32;317645;-80
2023/06/02 03:34:44;;;;;;;13.80;7.03;;;;;;;;;;4329366;32;329261;-80
2023/06/02 03:37:12;;;;;;;10.82;6.65;;;;;;;;;;4343429;32;317986;-79
2023/06/02 03:39:39;;;;;;;14.90;7.78;;;;;;;;;;4341192;32;317952;-79
2023/06/02 03:42:08;;;;;;;8.25;6.70;;;;;;;;;;4329331;32;417242;-79
2023/06/02 03:44:36;;;;;;;9.38;6.82;;;;;;;;;;4343085;32;316803;-79
2023/06/02 03:47:03;;;;;;;12.70;7.10;;;;;;;;;;4332811;32;316862;-79
2023/06/02 03:49:31;;;;;;;9.00;6.15;;;;;;;;;;4342573;32;318119;-80
2023/06/02 03:51:59;;;;;;;15.00;7.43;;;;;;;;;;4333143;32;316653;-79
2023/06/02 03:54:26;;;;;;;9.52;6.95;;;;;;;;;;4342051;32;317846;-79
2023/06/02 03:56:53;;;;;;;17.00;7.15;;;;;;;;;;4332471;32;316828;-79
2023/06/02 03:59:22;;;;;;;12.50;7.75;;;;;;;;;;4342757;32;318057;-79
2023/06/02 04:01:50;;;;;;;9.68;6.45;;;;;;;;;;4332857;32;317808;-79
2023/06/02 04:04:17;;;;;;;16.12;7.87;;;;;;;;;;4341151;32;316704;-79
2023/06/02 04:06:45;;;;;;;12.10;6.93;;;;;;;;;;4329218;32;317920;-79
2023/06/02 04:09:13;;;;;;;10.85;7.35;;;;;;;;;;4342343;32;317909;-79
2023/06/02 04:11:41;;;;;;;14.43;7.30;;;;;;;;;;4342741;32;318227;-79
2023/06/02 04:14:10;;;;;;;22.25;8.20;;;;;;;;;;4329883;32;416913;-79
2023/06/02 04:16:39;;;;;;;9.30;7.07;;;;;;;;;;4340826;32;317809;-80
2023/06/02 04:19:07;;;;;;;13.65;8.35;;;;;;;;;;4329144;32;385251;-80
2023/06/02 04:21:35;;;;;;;13.10;8.45;;;;;;;;;;4341637;32;318002;-80
2023/06/02 04:24:02;;;;;;;16.87;7.90;;;;;;;;;;4323259;32;317827;-79
2023/06/02 04:26:30;;;;;;;11.10;7.32;;;;;;;;;;4341533;32;318107;-79
2023/06/02 04:28:57;;;;;;;10.63;7.65;;;;;;;;;;4331042;32;318067;-79
2023/06/02 04:31:42;;;;;;;7.87;6.50;;;;;;;;;;4340984;32;318168;-79
2023/06/02 04:34:11;;;;;;;10.95;7.10;;;;;;;;;;4329486;32;416192;-79
2023/06/02 04:36:38;;;;;;;9.15;7.28;;;;;;;;;;4341203;32;317908;-81
2023/06/02 04:39:07;;;;;;;8.95;7.05;;;;;;;;;;4332352;32;316831;-81
2023/06/02 04:41:34;;;;;;;13.65;7.70;;;;;;;;;;4339796;32;352610;-79
2023/06/02 04:44:01;;;;;;;16.05;7.78;;;;;;;;;;4332273;32;318190;-82
2023/06/02 04:46:28;;;;;;;10.70;7.90;;;;;;;;;;4342488;32;317687;-79
2023/06/02 04:48:57;;;;;;;13.32;6.72;;;;;;;;;;4332078;32;317917;-82
2023/06/02 04:51:28;;;;;;;12.48;6.78;;;;;;;;;;4342329;32;318116;-79
2023/06/02 04:53:56;;;;;;;13.13;7.25;;;;;;;;;;4332111;32;318215;-81
2023/06/02 04:56:24;;;;;;;9.65;8.00;;;;;;;;;;4340981;32;317798;-79
2023/06/02 04:58:51;;;;;;;13.70;7.90;;;;;;;;;;4332084;32;316717;-79
2023/06/02 05:01:19;;;;;;;13.43;7.07;;;;;;;;;;4341456;32;317794;-79
2023/06/02 05:03:46;;;;;;;9.25;7.37;;;;;;;;;;4330101;32;318217;-79
2023/06/02 05:06:15;;;;;;;12.25;8.10;;;;;;;;;;4341766;32;316650;-80
2023/06/02 05:08:43;;;;;;;8.43;6.30;;;;;;;;;;4332089;32;317966;-81
2023/06/02 05:11:10;;;;;;;6.97;6.28;;;;;;;;;;4340940;32;317055;-79
2023/06/02 05:13:37;;;;;;;11.68;7.20;;;;;;;;;;4342288;32;316910;-80
2023/06/02 05:16:05;;;;;;;10.68;8.13;;;;;;;;;;4331395;32;317935;-80
2023/06/02 05:18:33;;;;;;;10.05;7.32;;;;;;;;;;4342221;32;317817;-80
2023/06/02 05:21:01;;;;;;;15.75;8.13;;;;;;;;;;4331469;32;317787;-80
2023/06/02 05:23:29;;;;;;;14.85;7.10;;;;;;;;;;4340736;32;317659;-80
2023/06/02 05:25:57;;;;;;;23.25;14.55;;;;;;;;;;4331153;32;318118;-80
2023/06/02 05:28:25;;;;;;;15.20;8.90;;;;;;;;;;4341552;32;318708;-80
2023/06/02 05:30:52;;;;;;;13.50;8.53;;;;;;;;;;4330493;32;318004;-80
2023/06/02 05:33:19;;;;;;;13.85;7.37;;;;;;;;;;4339571;32;317821;-80
2023/06/02 05:35:47;;;;;;;13.68;8.38;;;;;;;;;;4329526;32;318015;-81
2023/06/02 05:38:17;;;;;;;8.60;7.45;;;;;;;;;;4340820;32;317841;-80
2023/06/02 05:40:46;;;;;;;9.18;7.37;;;;;;;;;;4328839;32;316966;-81
2023/06/02 05:43:14;;;;;;;13.88;7.72;;;;;;;;;;4340109;32;316762;-80
2023/06/02 05:45:41;;;;;;;8.77;7.85;;;;;;;;;;4339920;32;317801;-81
2023/06/02 05:48:09;;;;;;;14.63;8.75;;;;;;;;;;4328197;32;415824;-77
2023/06/02 05:50:37;;;;;;;12.18;7.75;;;;;;;;;;4340595;32;317798;-78
2023/06/02 05:53:05;;;;;;;14.07;7.40;;;;;;;;;;4331380;32;317891;-80
2023/06/02 05:55:32;;;;;;;13.52;7.90;;;;;;;;;;4339123;32;317779;-78
2023/06/02 05:58:02;;;;;;;15.23;7.95;;;;;;;;;;4329101;32;317625;-80
2023/06/02 06:00:29;;;;;;;16.67;8.02;;;;;;;;;;4331388;32;317767;-80
2023/06/02 06:02:56;;;;;;;12.85;8.63;;;;;;;;;;4330230;32;318080;-79
2023/06/02 06:05:24;;;;;;;11.90;7.75;;;;;;;;;;4340986;32;317919;-79
2023/06/02 06:07:51;;;;;;;16.52;8.43;;;;;;;;;;4331685;32;330356;-78
2023/06/02 06:10:19;;;;;;;18.55;7.90;;;;;;;;;;4346105;32;317809;-86
2023/06/02 06:12:46;;;;;;;11.80;8.07;;;;;;;;;;4336359;32;317844;-86
2023/06/02 06:15:15;;;;;;;15.00;8.00;;;;;;;;;;4346091;32;317842;-82
2023/06/02 06:17:49;;;;;;;9.68;8.18;;;;;;;;;;4335234;32;317862;-78
2023/06/02 06:20:17;;;;;;;18.05;8.82;;;;;;;;;;4345719;32;316934;-78
2023/06/02 06:22:44;;;;;;;13.30;7.60;;;;;;;;;;4330484;32;329608;-81
2023/06/02 06:25:12;;;;;;;10.73;7.07;;;;;;;;;;4343774;32;317889;-82
2023/06/02 06:27:40;;;;;;;8.27;6.80;;;;;;;;;;4342271;32;317807;-79
2023/06/02 06:30:08;;;;;;;18.48;7.95;;;;;;;;;;4330088;32;416485;-82
2023/06/02 06:32:37;;;;;;;9.52;8.15;;;;;;;;;;4340870;32;318058;-82
2023/06/02 06:35:05;;;;;;;12.05;7.45;;;;;;;;;;4329546;32;316904;-82
2023/06/02 06:37:33;;;;;;;18.35;8.23;;;;;;;;;;4340411;32;317865;-81
2023/06/02 06:40:00;;;;;;;10.93;8.32;;;;;;;;;;4330523;32;317792;-82
2023/06/02 06:42:27;;;;;;;12.35;7.55;;;;;;;;;;4340847;32;317975;-82
2023/06/02 06:44:55;;;;;;;13.55;7.50;;;;;;;;;;4330397;33;317754;-82
2023/06/02 06:47:22;;;;;;;22.00;7.93;;;;;;;;;;4339995;33;317988;-79
2023/06/02 06:49:51;;;;;;;10.38;8.32;;;;;;;;;;4350297;33;317933;-80
2023/06/02 06:52:19;;;;;;;14.48;8.48;;;;;;;;;;4360776;33;20599;-79
2023/06/02 06:54:46;;;;;;;16.65;8.15;;;;;;;;;;4362791;32;20244;-81
2023/06/02 06:57:14;;;;;;;13.40;7.80;;;;;;;;;;4363749;32;20648;-82
2023/06/02 06:59:43;;;;;;;13.93;7.68;;;;;;;;;;4363772;32;20670;-82
2023/06/02 07:02:10;;;;;;;9.63;7.87;;;;;;;;;;4363656;32;20646;-82
2023/06/02 07:04:37;;;;;;;12.75;8.25;;;;;;;;;;4363836;32;20556;-80
2023/06/02 07:07:07;;;;;;;10.75;7.45;;;;;;;;;;4363648;32;20735;-81
2023/06/02 07:09:34;;;;;;;9.10;7.25;;;;;;;;;;4363471;32;20608;-82
2023/06/02 07:12:01;;;;;;;11.55;8.02;;;;;;;;;;4363410;32;20653;-81
2023/06/02 07:14:29;;;;;;;15.32;8.18;;;;;;;;;;4363615;32;20612;-82
2023/06/02 07:16:56;;;;;;;15.38;8.63;;;;;;;;;;4363592;32;20582;-82
2023/06/02 07:19:24;;;;;;;9.82;8.20;;;;;;;;;;4363578;32;20610;-81
2023/06/02 07:21:52;;;;;;;12.52;7.82;;;;;;;;;;4363305;32;20403;-81
2023/06/02 07:24:21;;;;;;;19.83;8.35;;;;;;;;;;4363493;32;20352;-83
2023/06/02 07:26:48;;;;;;;10.70;7.93;;;;;;;;;;4363006;32;20661;-85
2023/06/02 07:29:15;;;;;;;11.70;8.68;;;;;;;;;;4362978;32;20517;-82
2023/06/02 07:31:43;;;;;;;14.82;8.35;;;;;;;;;;4363096;32;20324;-82
2023/06/02 07:34:11;;;;;;;10.52;7.40;;;;;;;;;;4362806;32;20611;-83
2023/06/02 07:36:39;;;;;;;12.37;7.72;;;;;;;;;;4363158;32;20602;-82
2023/06/02 07:39:07;;;;;;;10.02;7.47;;;;;;;;;;4363088;32;20539;-80
2023/06/02 07:41:36;;;;;;;10.77;7.22;;;;;;;;;;4363355;32;20567;-85
2023/06/02 07:44:03;;;;;;;13.98;6.75;;;;;;;;;;4362780;32;20274;-85
2023/06/02 07:46:30;;;;;;;12.75;7.53;;;;;;;;;;4363222;32;20236;-83
2023/06/02 07:48:58;;;;;;;12.93;7.03;;;;;;;;;;4363726;32;20543;-82
2023/06/02 07:51:25;;;;;;;8.75;6.70;;;;;;;;;;4362881;32;20729;-79
2023/06/02 07:53:53;;;;;;;11.77;7.28;;;;;;;;;;4362826;32;20596;-81
2023/06/02 07:56:21;;;;;;;15.80;7.30;;;;;;;;;;4364623;32;20529;-78
2023/06/02 07:58:50;;;;;;;20.17;9.70;;;;;;;;;;4363493;32;20583;-80
2023/06/02 08:01:17;;;;;;;11.02;7.65;;;;;;;;;;4363202;32;20583;-88
2023/06/02 08:03:45;;;;;;;9.93;7.78;;;;;;;;;;4363196;32;20690;-83
2023/06/02 08:06:12;;;;;;;9.93;6.95;;;;;;;;;;4362059;32;20578;-86
2023/06/02 08:08:40;;;;;;;10.27;7.25;;;;;;;;;;4362856;32;20569;-83
2023/06/02 08:11:07;;;;;;;14.32;7.93;;;;;;;;;;4362860;32;20669;-82
2023/06/02 08:13:34;;;;;;;6.93;6.05;;;;;;;;;;4362639;32;20600;-85
2023/06/02 08:16:04;;;;;;;15.95;6.35;;;;;;;;;;4362843;32;20620;-84
2023/06/02 08:18:31;;;;;;;10.13;6.68;;;;;;;;;;4362795;32;20551;-86
2023/06/02 08:20:58;;;;;;;14.65;6.93;;;;;;;;;;4362448;32;20567;-84
2023/06/02 08:23:27;;;;;;;11.48;6.03;;;;;;;;;;4362747;32;20622;-80
2023/06/02 08:25:54;;;;;;;11.95;7.32;;;;;;;;;;4362198;32;20583;-80
2023/06/02 08:28:24;;;;;;;10.98;6.72;;;;;;;;;;4362602;32;20624;-81
2023/06/02 08:30:52;;;;;;;8.68;6.78;;;;;;;;;;4362574;32;20568;-82
2023/06/02 08:33:21;;;;;;;12.23;7.15;;;;;;;;;;4362942;32;20600;-93
2023/06/02 08:35:50;;;;;;;8.75;6.45;;;;;;;;;;4363109;32;20657;-89
2023/06/02 08:38:18;;;;;;;16.80;6.95;;;;;;;;;;4365592;32;20587;-96
2023/06/02 08:40:48;;;;;;;7.97;6.68;;;;;;;;;;4363548;32;20575;-79
2023/06/02 08:43:16;;;;;;;7.35;6.45;;;;;;;;;;4363020;32;20653;-83
2023/06/02 08:45:45;;;;;;;13.60;6.65;;;;;;;;;;4362350;32;20308;-93
2023/06/02 08:48:15;;;;;;;13.05;7.10;;;;;;;;;;4362455;32;20581;-82
2023/06/02 08:50:47;;;;;;;11.05;6.75;;;;;;;;;;4362709;32;20332;-85
2023/06/02 08:53:17;;;;;;;12.37;7.53;;;;;;;;;;4363494;32;20604;-77
2023/06/02 08:55:49;;;;;;;8.20;7.30;;;;;;;;;;4364534;32;20343;-80
2023/06/02 08:58:16;;;;;;;9.93;6.85;;;;;;;;;;4362099;32;20599;-81
2023/06/02 09:00:44;;;;;;;7.90;6.32;;;;;;;;;;4361703;32;20298;-79
2023/06/02 09:03:14;;;;;;;9.70;5.97;;;;;;;;;;4361911;32;20624;-82
2023/06/02 09:05:44;;;;;;;7.45;6.10;;;;;;;;;;4361675;32;20624;-87
2023/06/02 09:08:13;;;;;;;9.18;6.03;;;;;;;;;;4361874;32;20289;-77
2023/06/02 09:10:42;;;;;;;9.73;5.57;;;;;;;;;;4361871;32;20648;-79
2023/06/02 09:13:10;;;;;;;8.82;6.97;;;;;;;;;;4361929;32;20536;-89
2023/06/02 09:15:54;;;;;;;9.32;7.00;;;;;;;;;;4361678;32;20274;-89
2023/06/02 09:18:22;;;;;;;10.68;6.10;;;;;;;;;;4362486;32;20302;-84
2023/06/02 09:20:52;;;;;;;18.50;6.95;;;;;;;;;;4362163;32;20548;-78
2023/06/02 09:23:19;;;;;;;15.70;7.35;;;;;;;;;;4362359;32;20610;-83
2023/06/02 09:25:47;;;;;;;10.77;6.28;;;;;;;;;;4361721;32;20584;-81
2023/06/02 09:30:15;;;;;;;11.73;5.93;;;;;;;;;;4441747;32;20371;-83
2023/06/02 09:32:53;;;;;;;15.38;6.00;;;;;;;;;;4427371;32;316569;-82
2023/06/02 09:35:41;;;;;;;7.57;5.07;;;;;;;;;;4415578;32;317977;-81
2023/06/02 09:38:11;;;;;;;13.45;6.03;;;;;;;;;;4404282;32;316862;-80
2023/06/02 09:40:39;;;;;;;11.40;5.75;;;;;;;;;;4413472;32;317716;-82
2023/06/02 09:43:07;;;;;;;6.10;5.15;;;;;;;;;;4403140;32;342022;-81
2023/06/02 09:45:59;;;;;;;7.30;6.07;;;;;;;;;;4412448;32;316638;-82
2023/06/02 09:48:27;;;;;;;12.68;5.68;;;;;;;;;;4401157;32;386966;-82
2023/06/02 09:50:55;;;;;;;10.50;6.10;;;;;;;;;;4413353;32;317937;-81
2023/06/02 09:53:23;;;;;;;14.18;5.32;;;;;;;;;;4403670;32;317809;-82
2023/06/02 09:55:51;;;;;;;10.23;5.85;;;;;;;;;;4413397;32;317851;-80
2023/06/02 09:58:19;;;;;;;7.80;5.45;;;;;;;;;;4402364;32;317661;-81
2023/06/02 10:00:48;;;;;;;11.95;5.60;;;;;;;;;;4413777;32;316733;-81
2023/06/02 10:03:16;;;;;;;9.05;5.32;;;;;;;;;;4403135;32;317793;-83
2023/06/02 10:05:50;;;;;;;13.95;5.72;;;;;;;;;;4413052;32;324029;-81
2023/06/02 10:08:28;;;;;;;7.40;5.85;;;;;;;;;;4402635;32;317827;-81
2023/06/02 10:11:14;;;;;;;8.60;5.65;;;;;;;;;;4411334;32;317123;-83
2023/06/02 10:14:01;;;;;;;12.43;5.85;;;;;;;;;;4399210;32;416925;-81
2023/06/02 10:16:53;;;;;;;10.50;5.05;;;;;;;;;;4401353;32;388949;-83
2023/06/02 10:19:42;;;;;;;7.57;5.62;;;;;;;;;;4402508;32;317813;-81
2023/06/02 10:22:25;;;;;;;8.55;5.28;;;;;;;;;;4401406;32;316860;-81
2023/06/02 10:25:04;;;;;;;7.05;5.78;;;;;;;;;;4411581;32;316583;-82
2023/06/02 10:27:35;;;;;;;10.43;5.30;;;;;;;;;;4402083;32;316870;-82
2023/06/02 10:30:03;;;;;;;9.45;5.35;;;;;;;;;;4411414;32;317767;-81
2023/06/02 10:32:44;;;;;;;6.25;5.55;;;;;;;;;;4401115;32;316968;-79
2023/06/02 10:35:11;;;;;;;8.43;5.30;;;;;;;;;;4413621;32;316988;-81
2023/06/02 10:37:39;;;;;;;10.88;5.60;;;;;;;;;;4401418;32;316875;-82
2023/06/02 10:40:10;;;;;;;6.75;5.65;;;;;;;;;;4406797;32;331014;-82
2023/06/02 10:42:38;;;;;;;9.63;5.53;;;;;;;;;;4391554;32;316657;-82
2023/06/02 10:45:36;;;;;;;7.85;5.65;;;;;;;;;;4402798;32;316809;-82
2023/06/02 10:48:38;;;;;;;8.77;4.95;;;;;;;;;;4395433;32;417432;-80
2023/06/02 10:51:06;;;;;;;6.90;5.25;;;;;;;;;;4388753;32;417419;-82
2023/06/02 10:53:33;;;;;;;8.98;4.53;;;;;;;;;;4390902;32;317187;-83
2023/06/02 10:56:40;;;;;;;6.40;5.18;;;;;;;;;;4402984;32;316910;-82
2023/06/02 10:59:09;;;;;;;8.68;5.65;;;;;;;;;;4376139;32;417172;-82
2023/06/02 11:01:46;;;;;;;10.35;5.50;;;;;;;;;;4392063;32;317103;-82
2023/06/02 11:04:38;;;;;;;5.60;5.00;;;;;;;;;;4401807;32;317909;-83
2023/06/02 11:07:26;;;;;;;8.70;5.43;;;;;;;;;;4393975;32;417065;-83
2023/06/02 11:09:55;;;;;;;10.27;5.72;;;;;;;;;;4390699;32;386833;-82
2023/06/02 11:13:01;;;;;;;7.10;4.80;;;;;;;;;;4391069;32;317995;-82
2023/06/02 11:15:29;;;;;;;8.90;4.43;;;;;;;;;;4389755;32;319634;-82
2023/06/02 11:17:56;;;;;;;5.93;4.72;;;;;;;;;;4401383;32;316962;-82
2023/06/02 11:20:34;;;;;;;6.07;4.50;;;;;;;;;;4392377;32;316715;-83
2023/06/02 11:23:06;;;;;;;9.70;4.03;;;;;;;;;;4402670;32;316755;-82
2023/06/02 11:25:33;;;;;;;6.15;4.28;;;;;;;;;;4390111;32;316799;-81
2023/06/02 11:28:01;;;;;;;6.20;4.32;;;;;;;;;;4402793;32;317020;-82
2023/06/02 11:30:28;;;;;;;5.32;3.92;;;;;;;;;;4391061;32;316855;-82
2023/06/02 11:32:55;;;;;;;5.43;3.67;;;;;;;;;;4400567;32;316738;-82
2023/06/02 11:35:27;;;;;;;5.40;3.08;;;;;;;;;;4391374;32;317082;-83
2023/06/02 11:38:02;;;;;;;4.03;3.50;;;;;;;;;;4402584;32;316688;-82
2023/06/02 11:40:30;;;;;;;5.15;3.60;;;;;;;;;;4391040;32;316966;-82
2023/06/02 11:42:57;;;;;;;9.63;3.28;;;;;;;;;;4401780;32;316777;-83
2023/06/02 11:45:26;;;;;;;8.18;3.37;;;;;;;;;;4390665;32;316940;-83
2023/06/02 11:47:58;;;;;;;4.50;3.20;;;;;;;;;;4401399;32;321373;-83
2023/06/02 11:50:28;;;;;;;3.45;2.97;;;;;;;;;;4391061;32;352707;-83
2023/06/02 11:52:55;;;;;;;5.60;2.70;;;;;;;;;;4402781;32;316941;-83
2023/06/02 11:55:27;;;;;;;6.87;2.87;;;;;;;;;;4392281;32;316992;-83
2023/06/02 11:57:54;;;;;;;5.40;3.47;;;;;;;;;;4400794;32;316793;-84
2023/06/02 12:00:22;;;;;;;5.87;3.22;;;;;;;;;;4391348;32;354310;-83
2023/06/02 12:02:53;;;;;;;4.45;3.15;;;;;;;;;;4400626;32;317166;-82
2023/06/02 12:05:32;;;;;;;4.93;3.03;;;;;;;;;;4389550;32;316907;-84
2023/06/02 12:08:08;;;;;;;4.32;2.85;;;;;;;;;;4401912;32;316913;-84
2023/06/02 12:10:36;;;;;;;6.72;3.40;;;;;;;;;;4391764;32;328812;-87
2023/06/02 12:13:03;;;;;;;4.80;3.00;;;;;;;;;;4401241;32;317000;-84
2023/06/02 12:15:34;;;;;;;14.87;3.47;;;;;;;;;;4392155;32;316785;-83
2023/06/02 12:18:05;;;;;;;5.30;2.60;;;;;;;;;;4401003;32;318166;-83
2023/06/02 12:20:42;;;;;;;3.67;2.72;;;;;;;;;;4389754;32;317239;-83
2023/06/02 12:23:11;;;;;;;3.95;2.50;;;;;;;;;;4400408;32;317022;-82
2023/06/02 12:25:39;;;;;;;7.65;4.40;;;;;;;;;;4392319;32;316832;-83
2023/06/02 12:28:12;;;;;;;4.62;2.78;;;;;;;;;;4400007;32;316878;-82
2023/06/02 12:30:40;;;;;;;5.47;3.00;;;;;;;;;;4391480;32;316920;-82
2023/06/02 12:33:11;;;;;;;4.78;2.37;;;;;;;;;;4400909;32;316953;-81
2023/06/02 12:35:40;;;;;;;3.85;2.45;;;;;;;;;;4392045;32;317105;-81
2023/06/02 12:38:09;;;;;;;3.72;2.60;;;;;;;;;;4400454;32;348257;-81
2023/06/02 12:40:38;;;;;;;5.85;2.72;;;;;;;;;;4391766;32;316505;-81
2023/06/02 12:43:05;;;;;;;4.93;3.10;;;;;;;;;;4401325;32;316538;-79
2023/06/02 12:45:33;;;;;;;3.92;2.33;;;;;;;;;;4390920;32;317045;-81
2023/06/02 12:48:01;;;;;;;5.28;2.83;;;;;;;;;;4399364;32;316922;-79
2023/06/02 12:50:29;;;;;;;2.85;2.20;;;;;;;;;;4390013;32;316657;-85
2023/06/02 12:52:58;;;;;;;4.95;3.10;;;;;;;;;;4400684;32;316907;-81
2023/06/02 12:55:26;;;;;;;3.70;2.67;;;;;;;;;;4391293;32;316656;-81
2023/06/02 12:57:54;;;;;;;2.83;2.53;;;;;;;;;;4401155;32;317110;-80
2023/06/02 13:00:21;;;;;;;3.65;2.62;;;;;;;;;;4390210;32;317057;-80
2023/06/02 13:02:49;;;;;;;2.90;2.35;;;;;;;;;;4400801;32;316871;-81
2023/06/02 13:05:16;;;;;;;3.95;2.47;;;;;;;;;;4390290;32;316808;-81
2023/06/02 13:07:44;;;;;;;12.30;3.08;;;;;;;;;;4401417;32;316822;-80
2023/06/02 13:10:13;;;;;;;3.35;2.62;;;;;;;;;;4400609;32;317861;-80
2023/06/02 13:12:41;;;;;;;4.00;2.53;;;;;;;;;;4387538;32;415931;-80
2023/06/02 13:15:09;;;;;;;6.28;2.75;;;;;;;;;;4400433;32;316841;-80
2023/06/02 13:17:36;;;;;;;5.45;2.95;;;;;;;;;;4388738;32;317054;-80
2023/06/02 13:20:04;;;;;;;8.48;3.62;;;;;;;;;;4401462;32;316841;-82
2023/06/02 13:22:32;;;;;;;5.72;3.33;;;;;;;;;;4388686;32;316797;-81
2023/06/02 13:25:00;;;;;;;4.35;3.50;;;;;;;;;;4401382;32;316940;-80
2023/06/02 13:27:29;;;;;;;5.12;2.87;;;;;;;;;;4388984;32;316737;-80
2023/06/02 13:29:56;;;;;;;4.78;3.10;;;;;;;;;;4399641;32;316865;-80
2023/06/02 13:32:23;;;;;;;7.30;3.60;;;;;;;;;;4390804;32;316850;-81
2023/06/02 13:34:55;;;;;;;4.80;3.60;;;;;;;;;;4400717;32;316718;-81
2023/06/02 13:37:22;;;;;;;5.07;3.42;;;;;;;;;;4388124;32;316973;-80
2023/06/02 13:39:50;;;;;;;10.48;4.10;;;;;;;;;;4400935;32;317104;-81
2023/06/02 13:42:21;;;;;;;5.20;3.25;;;;;;;;;;4390790;32;317941;-81
2023/06/02 13:44:51;;;;;;;4.62;3.12;;;;;;;;;;4398398;32;316612;-81
2023/06/02 13:47:18;;;;;;;5.47;3.40;;;;;;;;;;4396368;32;324502;-81
2023/06/02 13:49:45;;;;;;;9.90;3.62;;;;;;;;;;4401195;32;316998;-81
2023/06/02 13:52:13;;;;;;;7.22;3.42;;;;;;;;;;4399383;32;348162;-80
2023/06/02 13:54:40;;;;;;;8.23;3.28;;;;;;;;;;4394395;32;415973;-81
2023/06/02 13:57:08;;;;;;;5.68;3.40;;;;;;;;;;4400710;32;316779;-80
2023/06/02 13:59:35;;;;;;;5.65;3.35;;;;;;;;;;4390965;32;316814;-80
2023/06/02 14:02:05;;;;;;;5.43;3.30;;;;;;;;;;4399639;32;336446;-81
2023/06/02 14:04:32;;;;;;;7.75;2.92;;;;;;;;;;4388844;32;316967;-81
2023/06/02 14:07:00;;;;;;;10.05;3.85;;;;;;;;;;4400423;32;316653;-81
2023/06/02 14:09:27;;;;;;;4.68;3.35;;;;;;;;;;4390182;32;317824;-81
2023/06/02 14:11:55;;;;;;;4.53;3.50;;;;;;;;;;4401190;32;316988;-81
2023/06/02 14:14:23;;;;;;;4.68;3.58;;;;;;;;;;4389491;32;316901;-81
2023/06/02 14:16:50;;;;;;;5.70;3.45;;;;;;;;;;4402667;32;316789;-80
2023/06/02 14:19:19;;;;;;;3.25;2.95;;;;;;;;;;4393381;32;318466;-81
2023/06/02 14:21:47;;;;;;;6.78;3.17;;;;;;;;;;4403472;32;328388;-81
2023/06/02 14:24:14;;;;;;;5.37;4.25;;;;;;;;;;4403029;32;315608;-81
2023/06/02 14:26:42;;;;;;;5.12;3.83;;;;;;;;;;4390400;32;416075;-80
2023/06/02 14:29:09;;;;;;;4.78;3.90;;;;;;;;;;4402391;32;316590;-81
2023/06/02 14:31:37;;;;;;;4.18;3.50;;;;;;;;;;4391624;32;352666;-81
2023/06/02 14:34:05;;;;;;;5.03;3.95;;;;;;;;;;4403180;32;316697;-81
2023/06/02 14:36:36;;;;;;;6.78;3.30;;;;;;;;;;4393180;32;316714;-81
2023/06/02 14:39:04;;;;;;;6.90;3.87;;;;;;;;;;4403361;32;317217;-80
2023/06/02 14:41:31;;;;;;;8.43;4.80;;;;;;;;;;4393609;32;316728;-80